Time;durP1;ratioP1;P1;durP2;ratioP2;P2;SDS_P1;SDS_P2;PMS_P1;PMS_P2;Temp;Humidity;BMP_temperature;BMP_pressure;BME280_temperature;BME280_humidity;BME280_pressure;Samples;Min_cycle;Max_cycle;Signal;HPM_P1;HPM_P2
2023/05/17 00:01:06;;;;;;;2.93;1.60;;;;;;;8.08;78.07;102399.84;5051980;28;20029;-85
2023/05/17 00:03:31;;;;;;;1.65;1.40;;;;;;;8.02;78.42;102398.00;5054848;28;20048;-84
2023/05/17 00:05:57;;;;;;;2.43;1.57;;;;;;;8.00;77.51;102400.56;5054176;28;20021;-84
2023/05/17 00:08:22;;;;;;;2.43;1.60;;;;;;;7.96;78.43;102397.88;5040268;28;20025;-84
2023/05/17 00:10:47;;;;;;;2.90;1.60;;;;;;;7.94;79.44;102403.00;5034539;28;20108;-84
2023/05/17 00:13:12;;;;;;;2.77;1.30;;;;;;;7.92;78.65;102412.47;5033565;28;20501;-84
2023/05/17 00:15:43;;;;;;;2.10;1.60;;;;;;;7.90;79.10;102411.56;5034781;28;20116;-84
2023/05/17 00:18:08;;;;;;;1.75;1.27;;;;;;;7.89;79.34;102407.22;5034574;28;20048;-84
2023/05/17 00:20:35;;;;;;;2.73;1.40;;;;;;;7.86;79.16;102408.03;5047814;28;20033;-84
2023/05/17 00:23:00;;;;;;;2.33;1.48;;;;;;;7.85;79.30;102408.88;5054059;28;20036;-84
2023/05/17 00:25:25;;;;;;;1.90;1.40;;;;;;;7.82;79.55;102403.63;5054396;28;20468;-84
2023/05/17 00:27:51;;;;;;;1.75;1.27;;;;;;;7.82;79.67;102403.63;5053493;28;20025;-84
2023/05/17 00:30:16;;;;;;;1.80;1.53;;;;;;;7.81;79.49;102407.06;5053569;28;20403;-84
2023/05/17 00:32:42;;;;;;;2.20;1.50;;;;;;;7.80;79.71;102397.56;5039958;28;20033;-84
2023/05/17 00:35:07;;;;;;;1.50;1.40;;;;;;;7.79;79.99;102406.16;5033383;28;20018;-84
2023/05/17 00:37:32;;;;;;;1.33;1.20;;;;;;;7.77;79.68;102400.06;5034464;28;20056;-84
2023/05/17 00:39:57;;;;;;;1.90;1.30;;;;;;;7.77;79.69;102402.66;5033834;28;20037;-84
2023/05/17 00:42:23;;;;;;;1.60;1.50;;;;;;;7.77;80.08;102401.78;5033368;28;20025;-85
2023/05/17 00:44:48;;;;;;;2.67;1.60;;;;;;;7.73;80.88;102391.38;5044600;28;20032;-84
2023/05/17 00:47:13;;;;;;;1.87;1.50;;;;;;;7.70;80.14;102383.59;5037754;28;20087;-84
2023/05/17 00:49:39;;;;;;;2.33;1.23;;;;;;;7.65;80.34;102384.34;5033209;28;20036;-84
2023/05/17 00:52:04;;;;;;;1.83;1.35;;;;;;;7.65;80.53;102389.50;5033859;28;20029;-84
2023/05/17 00:54:32;;;;;;;1.90;1.40;;;;;;;7.64;80.82;102395.50;5033975;28;20473;-84
2023/05/17 00:56:59;;;;;;;2.40;1.40;;;;;;;7.61;80.62;102392.84;5049553;28;20036;-84
2023/05/17 00:59:25;;;;;;;;;;;;;;;7.61;80.43;102391.13;5054154;28;20055;-84
2023/05/17 01:01:51;;;;;;;2.43;1.70;;;;;;;7.61;80.60;102387.66;5045189;28;19917;-85
2023/05/17 01:04:16;;;;;;;2.97;1.52;;;;;;;7.58;80.72;102389.34;5033468;28;20390;-84
2023/05/17 01:06:42;;;;;;;2.10;1.50;;;;;;;7.55;81.12;102399.59;5033383;28;20021;-84
2023/05/17 01:09:08;;;;;;;1.65;1.20;;;;;;;7.53;81.03;102396.13;5032719;28;20027;-84
2023/05/17 01:11:47;;;;;;;1.87;1.27;;;;;;;7.49;81.40;102399.47;5033619;28;20195;-85
2023/05/17 01:14:22;;;;;;;1.73;1.38;;;;;;;7.50;81.36;102388.31;5033457;28;20021;-84
2023/05/17 01:16:53;;;;;;;1.70;1.60;;;;;;;7.50;80.98;102395.16;5032771;28;20032;-84
2023/05/17 01:19:40;;;;;;;1.77;1.67;;;;;;;7.49;81.43;102390.84;5033704;28;20033;-84
2023/05/17 01:22:14;;;;;;;1.35;1.10;;;;;;;7.44;81.81;102393.31;5033035;28;20422;-84
2023/05/17 01:25:16;;;;;;;2.95;1.30;;;;;;;7.44;82.09;102395.91;5032328;28;20021;-85
2023/05/17 01:27:46;;;;;;;1.27;1.05;;;;;;;7.41;84.11;102412.22;4933889;29;20031;-84
2023/05/17 01:30:14;;;;;;;2.30;1.45;;;;;;;7.41;84.56;102413.94;5018701;28;20461;-84
2023/05/17 01:32:45;;;;;;;2.55;1.38;;;;;;;7.38;84.25;102411.28;5040774;28;20432;-84
2023/05/17 01:35:11;;;;;;;2.83;1.38;;;;;;;7.36;84.61;102407.78;5052721;28;20025;-85
2023/05/17 01:37:38;;;;;;;2.38;1.40;;;;;;;7.35;83.48;102400.88;5052638;28;20112;-85
2023/05/17 01:40:05;;;;;;;2.20;0.88;;;;;;;7.35;83.56;102406.03;5052828;28;20461;-85
2023/05/17 01:42:32;;;;;;;1.48;1.30;;;;;;;7.37;83.08;102406.94;5052624;28;20124;-85
2023/05/17 01:45:02;;;;;;;1.42;1.17;;;;;;;7.35;83.33;102393.13;5051702;28;20035;-85
2023/05/17 01:47:42;;;;;;;1.98;1.52;;;;;;;7.39;83.04;102400.13;5052965;28;20469;-85
2023/05/17 01:50:09;;;;;;;1.85;1.20;;;;;;;7.38;83.85;102406.97;5051037;28;20033;-85
2023/05/17 01:52:37;;;;;;;1.52;1.40;;;;;;;7.33;83.82;102394.78;5051970;28;20033;-85
2023/05/17 01:55:17;;;;;;;1.38;1.00;;;;;;;7.34;84.17;102401.69;5052000;28;20021;-84
2023/05/17 01:57:46;;;;;;;1.70;1.13;;;;;;;7.33;83.98;102403.44;5040847;28;20039;-84
2023/05/17 02:00:13;;;;;;;1.73;1.30;;;;;;;7.31;83.35;102401.66;5031749;28;20079;-84
2023/05/17 02:02:38;;;;;;;;;;;;;;;7.31;84.45;102399.94;5033144;28;20087;-85
2023/05/17 02:05:04;;;;;;;1.93;1.17;;;;;;;7.30;84.53;102410.25;5032048;28;19917;-84
2023/05/17 02:07:29;;;;;;;2.43;1.40;;;;;;;7.27;83.67;102405.84;5032633;28;20087;-84
2023/05/17 02:09:55;;;;;;;2.47;1.30;;;;;;;7.29;84.05;102406.75;5042545;28;20025;-85
2023/05/17 02:12:20;;;;;;;1.87;1.50;;;;;;;7.29;83.66;102399.00;5051839;28;20485;-85
2023/05/17 02:14:45;;;;;;;1.58;1.33;;;;;;;7.30;83.88;102400.75;5052804;28;20053;-85
2023/05/17 02:17:12;;;;;;;2.55;1.55;;;;;;;7.28;83.42;102399.00;5052411;28;20060;-85
2023/05/17 02:19:37;;;;;;;2.25;1.70;;;;;;;7.28;83.60;102399.00;5051538;28;20021;-85
2023/05/17 02:22:02;;;;;;;3.60;1.80;;;;;;;7.27;83.58;102395.50;5042811;28;20118;-84
2023/05/17 02:24:28;;;;;;;1.73;1.60;;;;;;;7.31;83.41;102402.50;5032623;28;20076;-84
2023/05/17 02:26:53;;;;;;;3.00;1.70;;;;;;;7.26;83.91;102391.22;5032173;28;20079;-84
2023/05/17 02:29:18;;;;;;;1.98;1.58;;;;;;;7.26;83.33;102401.53;5039167;28;20053;-85
2023/05/17 02:31:44;;;;;;;2.22;1.85;;;;;;;7.27;83.55;102392.94;5052495;28;20025;-85
2023/05/17 02:34:10;;;;;;;1.70;1.60;;;;;;;7.26;83.52;102394.66;5050142;28;20461;-84
2023/05/17 02:36:35;;;;;;;3.30;1.93;;;;;;;7.24;83.29;102396.31;5051957;28;20120;-84
2023/05/17 02:39:03;;;;;;;2.60;1.63;;;;;;;7.25;83.47;102410.13;5052072;28;20021;-84
2023/05/17 02:41:28;;;;;;;3.28;1.70;;;;;;;7.25;83.42;102410.13;5051315;28;20499;-84
2023/05/17 02:43:54;;;;;;;2.40;1.77;;;;;;;7.26;83.44;102415.31;5052316;28;20021;-84
2023/05/17 02:46:20;;;;;;;2.80;1.93;;;;;;;7.25;83.72;102417.88;5046955;28;20366;-84
2023/05/17 02:48:45;;;;;;;2.80;1.90;;;;;;;7.30;83.69;102415.41;5051698;28;20059;-84
2023/05/17 02:51:10;;;;;;;1.70;1.60;;;;;;;7.27;83.82;102408.44;5034603;28;20065;-84
2023/05/17 02:53:38;;;;;;;2.17;1.73;;;;;;;7.33;84.45;102415.44;5032312;28;20457;-84
2023/05/17 02:56:04;;;;;;;2.80;2.00;;;;;;;7.35;84.26;102416.38;5032415;28;20103;-84
2023/05/17 02:58:29;;;;;;;1.80;1.67;;;;;;;7.37;84.42;102423.34;5032464;28;20116;-85
2023/05/17 03:00:54;;;;;;;2.10;1.70;;;;;;;7.35;85.77;102418.94;5031998;28;20075;-84
2023/05/17 03:03:20;;;;;;;1.63;1.53;;;;;;;7.38;85.36;102419.03;5031156;28;20028;-84
2023/05/17 03:05:45;;;;;;;1.92;1.50;;;;;;;7.40;84.76;102427.69;5032252;28;20064;-85
2023/05/17 03:08:11;;;;;;;2.27;1.57;;;;;;;7.43;85.10;102427.75;5050962;28;20025;-84
2023/05/17 03:10:36;;;;;;;1.67;1.40;;;;;;;7.44;85.04;102429.50;5051308;28;20029;-85
2023/05/17 03:13:01;;;;;;;2.88;1.73;;;;;;;7.47;85.10;102431.28;5051423;28;20025;-84
2023/05/17 03:15:28;;;;;;;2.00;1.60;;;;;;;7.50;84.93;102429.66;5051413;28;20029;-84
2023/05/17 03:17:54;;;;;;;2.33;1.77;;;;;;;7.54;84.98;102439.19;5051941;28;20492;-85
2023/05/17 03:20:20;;;;;;;1.77;1.48;;;;;;;7.53;85.17;102434.91;5032455;28;20033;-85
2023/05/17 03:22:45;;;;;;;1.77;1.63;;;;;;;7.55;85.14;102437.50;5032327;28;20025;-84
2023/05/17 03:25:13;;;;;;;3.00;1.77;;;;;;;7.56;85.33;102437.53;5035816;28;20025;-84
2023/05/17 03:27:38;;;;;;;3.15;1.80;;;;;;;7.61;86.33;102439.34;5035823;28;20104;-85
2023/05/17 03:30:04;;;;;;;1.73;1.40;;;;;;;7.60;85.75;102437.59;5036749;28;20171;-83
2023/05/17 03:32:30;;;;;;;1.75;1.30;;;;;;;7.63;85.74;102441.13;5054980;28;20056;-85
2023/05/17 03:34:55;;;;;;;2.83;1.40;;;;;;;7.67;85.33;102434.31;5055345;28;20457;-84
2023/05/17 03:37:21;;;;;;;2.37;1.60;;;;;;;7.69;85.47;102448.13;5054653;28;20154;-85
2023/05/17 03:39:47;;;;;;;2.90;1.60;;;;;;;7.66;85.84;102445.47;5055188;28;20569;-85
2023/05/17 03:42:12;;;;;;;2.00;1.60;;;;;;;7.68;86.19;102438.63;5050588;28;20112;-85
2023/05/17 03:44:39;;;;;;;2.07;1.60;;;;;;;7.67;85.79;102442.06;5043498;28;20371;-85
2023/05/17 03:47:05;;;;;;;2.80;1.92;;;;;;;7.70;87.51;102450.78;5035374;28;20037;-85
2023/05/17 03:49:30;;;;;;;1.85;1.50;;;;;;;7.69;86.40;102456.78;5035049;28;20076;-85
2023/05/17 03:51:55;;;;;;;2.00;1.77;;;;;;;7.69;86.15;102451.63;5039135;28;20499;-85
2023/05/17 03:54:21;;;;;;;2.47;1.77;;;;;;;7.68;86.11;102451.56;5055047;28;20056;-84
2023/05/17 03:56:47;;;;;;;2.43;1.70;;;;;;;7.65;86.40;102452.38;5055396;28;20481;-84
2023/05/17 03:59:13;;;;;;;3.50;1.77;;;;;;;7.66;87.22;102458.41;5053868;28;20017;-84
2023/05/17 04:01:39;;;;;;;1.50;1.40;;;;;;;7.55;86.62;102451.28;5039361;28;20095;-84
2023/05/17 04:04:04;;;;;;;1.70;1.60;;;;;;;7.61;86.98;102462.59;5039207;28;20045;-85
2023/05/17 04:06:30;;;;;;;1.55;1.45;;;;;;;7.60;86.31;102458.28;5054125;28;20057;-85
2023/05/17 04:08:55;;;;;;;2.57;1.70;;;;;;;7.61;85.79;102465.19;5054757;28;20068;-85
2023/05/17 04:11:25;;;;;;;2.50;1.70;;;;;;;7.61;86.19;102465.19;5054536;28;20039;-85
2023/05/17 04:13:51;;;;;;;2.20;1.65;;;;;;;7.63;86.88;102471.28;5054153;28;20079;-85
2023/05/17 04:16:17;;;;;;;4.10;1.60;;;;;;;7.60;86.33;102463.44;5051394;28;20187;-85
2023/05/17 04:18:42;;;;;;;3.20;1.70;;;;;;;7.60;86.09;102466.03;5034083;28;20022;-84
2023/05/17 04:21:07;;;;;;;1.98;1.65;;;;;;;7.62;86.44;102475.56;5034265;28;20474;-85
2023/05/17 04:23:33;;;;;;;2.53;2.00;;;;;;;7.61;86.15;102473.81;5034664;28;20024;-86
2023/05/17 04:25:59;;;;;;;3.30;1.77;;;;;;;7.62;85.79;102474.69;5033726;28;20060;-85
2023/05/17 04:28:25;;;;;;;3.03;1.93;;;;;;;7.66;86.00;102481.66;5049105;28;20064;-85
2023/05/17 04:30:51;;;;;;;2.13;1.70;;;;;;;7.62;85.88;102474.69;5054554;28;20493;-85
2023/05/17 04:33:16;;;;;;;2.07;1.80;;;;;;;7.65;86.19;102488.56;5053072;28;20091;-85
2023/05/17 04:35:42;;;;;;;3.97;2.03;;;;;;;7.69;86.10;102492.97;5052727;28;20017;-85
2023/05/17 04:38:08;;;;;;;2.83;1.65;;;;;;;7.69;85.96;102484.31;5048541;28;20036;-85
2023/05/17 04:40:33;;;;;;;2.53;1.80;;;;;;;7.77;86.30;102500.00;5053784;28;20538;-85
2023/05/17 04:42:59;;;;;;;2.53;1.90;;;;;;;7.80;86.14;102494.91;5053981;28;20021;-84
2023/05/17 04:45:24;;;;;;;3.20;1.80;;;;;;;7.84;85.92;102502.78;5054315;28;20021;-85
2023/05/17 04:47:51;;;;;;;3.05;1.88;;;;;;;7.87;85.70;102507.13;5041567;28;20100;-86
2023/05/17 04:50:17;;;;;;;3.25;2.10;;;;;;;7.93;85.90;102501.22;5033950;28;20037;-85
2023/05/17 04:52:42;;;;;;;3.00;1.90;;;;;;;7.96;86.02;102509.91;5034192;28;20416;-85
2023/05/17 04:55:08;;;;;;;2.20;1.80;;;;;;;8.00;86.04;102516.91;5035070;28;20032;-85
2023/05/17 04:57:33;;;;;;;2.10;1.73;;;;;;;7.99;86.27;102507.41;5054144;28;20374;-85
2023/05/17 04:59:59;;;;;;;3.58;1.90;;;;;;;8.06;89.08;102508.44;5042916;28;20052;-85
2023/05/17 05:02:24;;;;;;;3.33;2.00;;;;;;;8.04;89.25;102513.56;5033388;28;20025;-86
2023/05/17 05:04:49;;;;;;;3.30;1.90;;;;;;;8.10;88.20;102519.69;5033958;28;20052;-86
2023/05/17 05:07:15;;;;;;;3.80;2.03;;;;;;;8.16;90.07;102517.28;5033952;28;20030;-86
2023/05/17 05:09:40;;;;;;;4.23;1.70;;;;;;;8.21;88.41;102527.72;5033054;28;20183;-86
2023/05/17 05:12:06;;;;;;;2.03;1.67;;;;;;;8.26;88.13;102539.00;5046310;28;20135;-86
2023/05/17 05:14:31;;;;;;;3.60;1.90;;;;;;;8.29;87.90;102527.00;5053878;28;20032;-87
2023/05/17 05:16:56;;;;;;;1.55;1.45;;;;;;;8.36;88.31;102533.19;5053038;28;20488;-86
2023/05/17 05:19:21;;;;;;;1.53;1.43;;;;;;;8.43;89.02;102540.25;5052860;28;20028;-86
2023/05/17 05:21:47;;;;;;;2.37;1.40;;;;;;;8.48;88.61;102537.81;5053773;28;20179;-84
2023/05/17 05:24:12;;;;;;;6.40;2.47;;;;;;;8.56;93.96;102541.41;5040251;28;20466;-85
2023/05/17 05:26:37;;;;;;;9.10;2.93;;;;;;;8.58;93.94;102544.91;5033344;28;20063;-85
2023/05/17 05:29:03;;;;;;;11.43;3.97;;;;;;;8.67;97.87;102543.34;5032213;28;20025;-86
2023/05/17 05:31:28;;;;;;;9.60;3.50;;;;;;;8.71;94.89;102551.19;5041002;28;20041;-85
2023/05/17 05:33:54;;;;;;;7.83;3.20;;;;;;;8.81;94.74;102557.44;5053211;28;20039;-86
2023/05/17 05:36:19;;;;;;;8.13;3.37;;;;;;;8.83;95.59;102554.88;5038047;28;20069;-85
2023/05/17 05:38:44;;;;;;;8.73;3.70;;;;;;;8.87;95.79;102556.69;5040128;28;20025;-86
2023/05/17 05:41:10;;;;;;;6.63;2.80;;;;;;;8.88;93.66;102559.28;5032995;28;20029;-86
2023/05/17 05:43:36;;;;;;;12.97;4.20;;;;;;;8.88;97.53;102558.44;5032464;28;20117;-86
2023/05/17 05:46:01;;;;;;;11.18;4.47;;;;;;;8.90;97.87;102565.38;5032103;28;20378;-85
2023/05/17 05:48:27;;;;;;;16.40;5.30;;;;;;;8.92;98.83;102560.22;5047521;28;20032;-86
2023/05/17 05:50:52;;;;;;;11.83;4.33;;;;;;;8.98;97.84;102562.06;5052496;28;20028;-86
2023/05/17 05:53:17;;;;;;;15.13;4.90;;;;;;;8.99;98.28;102558.63;5052779;28;20185;-86
2023/05/17 05:55:45;;;;;;;13.43;4.23;;;;;;;9.06;97.11;102568.28;5053034;28;20029;-86
2023/05/17 05:58:11;;;;;;;13.15;4.40;;;;;;;9.09;96.72;102570.91;5045285;28;20124;-86
2023/05/17 06:00:36;;;;;;;10.03;3.77;;;;;;;9.16;95.66;102579.66;5047392;28;20524;-85
2023/05/17 06:03:01;;;;;;;17.47;5.10;;;;;;;9.20;94.83;102581.47;5036666;28;20021;-85
2023/05/17 06:05:27;;;;;;;12.37;4.40;;;;;;;9.18;95.18;102567.63;5043369;28;20029;-86
2023/05/17 06:07:52;;;;;;;13.80;4.10;;;;;;;9.32;94.72;102589.47;5034263;28;20052;-85
2023/05/17 06:10:17;;;;;;;17.30;4.80;;;;;;;9.36;94.29;102588.66;5039975;28;20549;-87
2023/05/17 06:12:43;;;;;;;14.07;4.10;;;;;;;9.37;92.84;102590.41;5032608;28;20029;-86
2023/05/17 06:15:09;;;;;;;16.50;4.47;;;;;;;9.45;92.12;102602.66;5032834;28;20099;-86
2023/05/17 06:17:34;;;;;;;13.77;4.03;;;;;;;9.48;91.62;102597.50;5032835;28;20022;-87
2023/05/17 06:19:59;;;;;;;15.30;4.20;;;;;;;9.56;91.88;102599.38;5032100;28;20030;-85
2023/05/17 06:22:25;;;;;;;15.93;4.13;;;;;;;9.70;90.20;102596.16;5032707;28;20033;-87
2023/05/17 06:24:50;;;;;;;13.60;3.77;;;;;;;9.96;89.34;102603.50;5032888;28;20030;-86
2023/05/17 06:27:15;;;;;;;12.10;3.47;;;;;;;10.35;84.80;102611.00;5035554;28;20021;-86
2023/05/17 06:29:40;;;;;;;15.27;4.00;;;;;;;10.85;84.50;102616.84;5052533;28;20041;-85
2023/05/17 06:32:06;;;;;;;12.10;3.60;;;;;;;11.20;82.84;102608.56;5052192;28;20032;-87
2023/05/17 06:34:31;;;;;;;6.27;2.67;;;;;;;12.09;84.49;102611.97;5051760;28;20029;-86
2023/05/17 06:36:57;;;;;;;6.77;2.67;;;;;;;13.77;81.03;102613.38;5052786;28;20043;-87
2023/05/17 06:39:22;;;;;;;7.57;2.57;;;;;;;15.44;65.51;102611.03;5052122;28;20051;-86
2023/05/17 06:41:47;;;;;;;11.53;2.80;;;;;;;16.09;58.35;102625.34;5048323;28;20033;-85
2023/05/17 06:44:13;;;;;;;7.83;2.50;;;;;;;15.81;66.63;102617.72;5033525;28;20045;-87
2023/05/17 06:46:38;;;;;;;11.77;2.83;;;;;;;15.77;54.60;102625.63;5037311;28;20048;-89
2023/05/17 06:49:03;;;;;;;9.80;2.30;;;;;;;15.54;58.99;102621.44;5050385;28;20032;-87
2023/05/17 06:51:29;;;;;;;10.63;2.50;;;;;;;15.62;58.42;102624.84;5049166;28;20030;-85
2023/05/17 06:53:55;;;;;;;10.13;2.30;;;;;;;15.40;59.45;102630.25;5032148;28;20120;-86
2023/05/17 06:56:20;;;;;;;8.73;2.20;;;;;;;14.92;56.19;102627.94;5034387;28;20034;-84
2023/05/17 06:58:46;;;;;;;7.03;2.40;;;;;;;14.60;55.35;102636.75;5054442;28;20103;-84
2023/05/17 07:01:12;;;;;;;8.93;2.07;;;;;;;14.31;56.68;102632.44;5044427;28;20014;-85
2023/05/17 07:03:37;;;;;;;10.55;2.30;;;;;;;13.80;59.73;102635.13;5037436;28;20539;-85
2023/05/17 07:06:06;;;;;;;9.00;2.30;;;;;;;13.36;57.72;102634.22;5054742;28;20053;-84
2023/05/17 07:08:31;;;;;;;7.93;2.35;;;;;;;12.94;59.53;102628.03;5055329;28;20032;-85
2023/05/17 07:10:56;;;;;;;7.50;2.17;;;;;;;12.79;61.29;102621.00;5056131;28;20033;-85
2023/05/17 07:13:22;;;;;;;10.47;2.33;;;;;;;12.67;61.55;102637.47;5055661;28;20126;-83
2023/05/17 07:15:47;;;;;;;8.67;2.27;;;;;;;12.57;63.79;102625.25;5055132;28;20017;-83
2023/05/17 07:18:12;;;;;;;8.23;2.10;;;;;;;12.62;63.17;102637.44;5055452;28;20040;-81
2023/05/17 07:20:38;;;;;;;6.70;2.27;;;;;;;12.77;63.44;102631.41;5056300;28;20028;-85
2023/05/17 07:23:03;;;;;;;9.57;2.30;;;;;;;12.82;59.77;102631.44;5055264;28;20032;-90
2023/05/17 07:25:28;;;;;;;9.93;2.40;;;;;;;12.94;62.56;102641.06;5055817;28;20041;-85
2023/05/17 07:27:54;;;;;;;9.57;2.30;;;;;;;13.00;60.94;102635.84;5056003;28;20519;-86
2023/05/17 07:30:19;;;;;;;4.83;1.97;;;;;;;13.24;62.61;102644.59;5045690;28;20561;-86
2023/05/17 07:32:44;;;;;;;8.87;2.40;;;;;;;13.22;58.77;102643.72;5043442;28;20108;-86
2023/05/17 07:35:10;;;;;;;11.97;2.40;;;;;;;12.95;59.74;102658.41;5048050;28;20100;-85
2023/05/17 07:37:35;;;;;;;9.67;2.40;;;;;;;12.80;59.04;102660.09;5029906;28;20025;-86
2023/05/17 07:40:01;;;;;;;5.73;2.07;;;;;;;12.95;62.82;102656.69;5048586;28;20017;-85
2023/05/17 07:42:29;;;;;;;13.00;2.60;;;;;;;13.12;56.87;102654.13;5040332;28;20113;-85
2023/05/17 07:44:54;;;;;;;13.18;2.65;;;;;;;13.11;56.36;102652.38;5040920;28;20112;-85
2023/05/17 07:47:19;;;;;;;9.50;2.40;;;;;;;13.14;60.54;102654.13;5045155;28;20048;-87
2023/05/17 07:49:45;;;;;;;8.43;2.23;;;;;;;13.27;55.67;102661.13;5035734;28;20038;-85
2023/05/17 07:52:10;;;;;;;9.57;2.30;;;;;;;13.35;56.24;102661.16;5044279;28;20025;-89
2023/05/17 07:54:35;;;;;;;7.67;2.20;;;;;;;13.48;52.58;102656.84;5055802;28;20028;-87
2023/05/17 07:57:00;;;;;;;7.10;1.97;;;;;;;13.62;56.29;102662.09;5053453;28;20398;-87
2023/05/17 07:59:26;;;;;;;10.33;2.53;;;;;;;13.83;56.51;102662.97;5038248;28;20083;-90
2023/05/17 08:01:51;;;;;;;9.97;2.53;;;;;;;13.82;55.59;102671.69;5036122;28;20025;-89
2023/05/17 08:04:18;;;;;;;13.77;2.67;;;;;;;13.30;53.18;102668.06;5038065;28;20449;-85
2023/05/17 08:06:45;;;;;;;9.98;2.38;;;;;;;12.83;53.82;102674.88;5055172;28;20036;-84
2023/05/17 08:09:17;;;;;;;5.88;1.95;;;;;;;12.89;57.59;102668.81;5053762;28;20441;-84
2023/05/17 08:11:45;;;;;;;10.48;2.65;;;;;;;12.76;55.85;102673.97;5054049;28;20027;-84
2023/05/17 08:14:16;;;;;;;10.65;2.50;;;;;;;12.56;56.31;102678.19;5054962;28;20021;-88
2023/05/17 08:16:42;;;;;;;8.25;2.20;;;;;;;12.72;58.02;102672.19;5045648;28;20466;-90
2023/05/17 08:19:11;;;;;;;7.85;2.10;;;;;;;12.98;56.27;102676.66;5033933;28;20399;-87
2023/05/17 08:21:37;;;;;;;7.80;2.28;;;;;;;13.14;53.93;102674.97;5035251;28;20099;-88
2023/05/17 08:24:03;;;;;;;8.75;2.13;;;;;;;13.44;55.92;102671.63;5034820;28;20033;-84
2023/05/17 08:26:28;;;;;;;6.83;2.00;;;;;;;13.56;56.25;102677.72;5034011;28;20033;-82
2023/05/17 08:28:54;;;;;;;5.67;1.90;;;;;;;13.72;53.08;102679.50;5034339;28;20075;-83
2023/05/17 08:31:19;;;;;;;7.80;2.00;;;;;;;13.62;54.45;102685.59;5034601;28;20034;-84
2023/05/17 08:33:44;;;;;;;7.53;2.20;;;;;;;13.11;54.52;102682.81;5034302;28;20393;-84
2023/05/17 08:36:10;;;;;;;6.57;2.07;;;;;;;12.86;54.02;102680.09;5034429;28;20476;-84
2023/05/17 08:38:36;;;;;;;8.50;2.27;;;;;;;12.60;54.37;102679.97;5034517;28;20025;-84
2023/05/17 08:41:01;;;;;;;6.05;1.98;;;;;;;12.73;55.90;102679.16;5034083;28;20053;-87
2023/05/17 08:43:27;;;;;;;10.13;2.00;;;;;;;12.90;52.17;102674.03;5042728;28;20037;-82
2023/05/17 08:45:53;;;;;;;8.37;2.00;;;;;;;13.13;55.16;102681.94;5053601;28;20056;-80
2023/05/17 08:48:19;;;;;;;6.93;2.10;;;;;;;13.23;51.58;102668.94;5054203;28;20450;-82
2023/05/17 08:50:45;;;;;;;7.75;1.80;;;;;;;13.48;52.32;102679.47;5054582;28;20032;-82
2023/05/17 08:53:12;;;;;;;;;;;;;;;13.49;51.57;102682.06;5053578;28;20109;-80
2023/05/17 08:55:38;;;;;;;;;;;;;;;13.73;53.80;102686.47;5054291;28;19955;-85
2023/05/17 08:58:04;;;;;;;7.88;1.80;;;;;;;14.01;52.51;102676.03;5053827;28;19921;-85
2023/05/17 09:00:32;;;;;;;;;;;;;;;14.32;53.28;102680.34;5054207;28;20028;-88
2023/05/17 09:02:58;;;;;;;5.60;1.88;;;;;;;14.52;51.39;102677.72;5050374;28;19964;-94
2023/05/17 09:05:27;;;;;;;7.35;2.00;;;;;;;14.64;48.26;102685.47;5034048;28;20443;-81
2023/05/17 09:07:55;;;;;;;5.30;1.98;;;;;;;14.73;47.61;102675.94;5035216;28;20009;-86
2023/05/17 09:10:20;;;;;;;8.00;1.80;;;;;;;14.66;47.31;102686.34;5033834;28;20052;-85
2023/05/17 09:12:46;;;;;;;7.53;1.83;;;;;;;14.62;49.93;102691.59;5053003;28;20025;-86
2023/05/17 09:15:17;;;;;;;7.07;1.98;;;;;;;14.36;47.78;102684.69;5053175;28;20430;-84
2023/05/17 09:17:49;;;;;;;5.05;1.55;;;;;;;14.36;48.90;102688.19;5053841;28;20052;-84
2023/05/17 09:20:24;;;;;;;4.88;1.50;;;;;;;14.66;50.43;102685.50;5052280;28;20079;-83
2023/05/17 09:22:50;;;;;;;8.32;2.10;;;;;;;14.94;45.47;102682.81;5052528;28;20473;-82
2023/05/17 09:25:22;;;;;;;5.22;1.83;;;;;;;14.86;48.10;102684.59;5053108;28;20032;-83
2023/05/17 09:27:51;;;;;;;6.45;1.90;;;;;;;15.00;50.26;102674.06;5053227;28;20024;-82
2023/05/17 09:30:17;;;;;;;5.93;1.70;;;;;;;15.20;49.37;102687.91;5053013;28;20041;-89
2023/05/17 09:32:48;;;;;;;6.03;1.67;;;;;;;15.28;47.73;102686.13;5053530;28;20060;-85
2023/05/17 09:35:13;;;;;;;6.03;1.92;;;;;;;15.30;49.19;102686.13;5052187;28;20078;-78
2023/05/17 09:37:41;;;;;;;5.30;1.67;;;;;;;15.57;49.34;102676.38;5053336;28;20021;-78
2023/05/17 09:40:07;;;;;;;7.90;2.15;;;;;;;15.25;45.54;102680.91;5052911;28;20406;-80
2023/05/17 09:42:38;;;;;;;9.63;2.30;;;;;;;15.08;46.69;102681.00;5045102;28;20108;-81
2023/05/17 09:45:03;;;;;;;6.22;1.70;;;;;;;15.11;46.95;102683.63;5033399;28;20030;-80
2023/05/17 09:47:29;;;;;;;9.60;2.27;;;;;;;15.08;45.41;102680.16;5032903;28;20022;-78
2023/05/17 09:49:57;;;;;;;8.73;2.17;;;;;;;14.97;46.60;102683.66;5032366;28;20067;-79
2023/05/17 09:52:23;;;;;;;6.22;1.83;;;;;;;14.88;46.07;102675.84;5032947;28;20025;-82
2023/05/17 09:54:56;;;;;;;4.72;1.75;;;;;;;15.02;48.96;102673.22;5033253;28;20075;-86
2023/05/17 09:57:22;;;;;;;5.25;1.73;;;;;;;15.22;48.18;102672.22;5045409;28;20037;-78
2023/05/17 09:59:48;;;;;;;5.55;1.90;;;;;;;15.48;46.85;102672.06;5052827;28;20024;-88
2023/05/17 10:02:19;;;;;;;6.63;1.95;;;;;;;15.63;47.55;102676.31;5035548;28;20098;-82
2023/05/17 10:04:48;;;;;;;6.78;1.85;;;;;;;15.74;44.99;102686.72;5032178;28;20525;-84
2023/05/17 10:07:18;;;;;;;5.35;1.90;;;;;;;15.99;46.37;102678.66;5032580;28;20550;-78
2023/05/17 10:09:45;;;;;;;8.23;1.95;;;;;;;15.93;44.84;102679.59;5032989;28;20159;-84
2023/05/17 10:12:15;;;;;;;7.40;2.03;;;;;;;15.84;46.33;102674.41;5031627;28;20041;-84
2023/05/17 10:14:42;;;;;;;7.30;2.20;;;;;;;15.42;46.14;102683.44;5034299;28;20025;-80
2023/05/17 10:17:08;;;;;;;8.70;2.25;;;;;;;15.22;47.98;102683.53;5032142;28;20383;-83
2023/05/17 10:19:35;;;;;;;6.15;1.80;;;;;;;15.16;45.67;102693.16;5032225;28;20022;-86
2023/05/17 10:22:01;;;;;;;7.82;1.90;;;;;;;15.39;46.32;102687.81;5031908;28;20561;-83
2023/05/17 10:24:29;;;;;;;7.18;2.13;;;;;;;15.46;44.98;102686.03;5032245;28;20033;-86
2023/05/17 10:26:55;;;;;;;5.80;1.67;;;;;;;15.72;44.79;102693.72;5034005;28;20424;-83
2023/05/17 10:29:22;;;;;;;7.37;2.03;;;;;;;15.80;44.58;102681.41;5032205;28;20049;-85
2023/05/17 10:31:50;;;;;;;;;;;;;;;16.00;44.22;102686.53;5031899;28;20426;-83
2023/05/17 10:34:19;;;;;;;3.92;1.60;;;;;;;16.16;44.78;102681.13;5032299;28;19909;-83
2023/05/17 10:36:45;;;;;;;5.72;1.98;;;;;;;16.32;44.28;102677.50;5032147;28;20393;-85
2023/05/17 10:39:13;;;;;;;7.22;2.03;;;;;;;16.46;41.86;102681.75;5032653;28;20461;-76
2023/05/17 10:41:42;;;;;;;3.45;1.50;;;;;;;16.61;45.09;102683.31;5032242;28;20025;-84
2023/05/17 10:44:11;;;;;;;2.33;1.20;;;;;;;16.79;41.04;102672.59;5032177;28;20366;-87
2023/05/17 10:46:36;;;;;;;3.63;1.23;;;;;;;16.94;44.59;102668.09;5039517;28;20020;-84
2023/05/17 10:49:05;;;;;;;7.27;1.83;;;;;;;16.96;40.03;102682.06;5050428;28;20146;-84
2023/05/17 10:51:36;;;;;;;4.93;1.55;;;;;;;16.57;39.68;102672.00;5052033;28;20028;-84
2023/05/17 10:54:01;;;;;;;4.53;1.67;;;;;;;16.63;42.12;102676.31;5051221;28;20021;-84
2023/05/17 10:56:30;;;;;;;5.00;1.40;;;;;;;16.81;43.57;102665.59;5052277;28;20366;-85
2023/05/17 10:59:23;;;;;;;6.13;1.83;;;;;;;16.68;40.58;102671.88;5051971;28;20017;-84
2023/05/17 11:02:09;;;;;;;6.72;2.03;;;;;;;16.59;42.86;102658.88;5049150;28;20029;-85
2023/05/17 11:04:41;;;;;;;;;;;;;;;16.64;43.26;102655.31;5052581;28;20017;-85
2023/05/17 11:07:22;;;;;;;3.28;1.60;;;;;;;16.78;42.00;102651.66;5051007;28;20018;-85
2023/05/17 11:09:50;;;;;;;3.00;1.30;;;;;;;16.75;42.04;102652.56;5052046;28;20029;-84
2023/05/17 11:12:29;;;;;;;7.05;1.50;;;;;;;16.75;44.99;102657.81;5052066;28;20351;-84
2023/05/17 11:14:55;;;;;;;4.90;1.70;;;;;;;16.97;42.88;102647.94;5051438;28;20036;-84
2023/05/17 11:17:42;;;;;;;6.50;2.00;;;;;;;17.00;40.45;102652.25;5051846;28;20020;-85
2023/05/17 11:20:31;;;;;;;6.15;2.00;;;;;;;16.93;40.88;102659.34;5034128;28;20107;-85
2023/05/17 11:22:59;;;;;;;3.67;1.55;;;;;;;17.17;40.09;102656.41;5051286;28;20122;-84
2023/05/17 11:25:34;;;;;;;5.53;1.83;;;;;;;17.06;38.97;102648.69;5052079;28;20492;-84
2023/05/17 11:28:00;;;;;;;3.75;1.38;;;;;;;17.12;41.84;102646.84;5050906;28;20480;-85